sensor_id;sensor_type;location;lat;lon;timestamp;pressure;altitude;pressure_sealevel;temperature;humidity
6349;BME280;3207;42.648;23.406;2023-07-13T00:00:11;99745.13;;;26.85;69.25
6349;BME280;3207;42.648;23.406;2023-07-13T00:02:41;99727.38;;;26.84;69.30
6349;BME280;3207;42.648;23.406;2023-07-13T00:05:08;99728.97;;;26.92;69.60
6349;BME280;3207;42.648;23.406;2023-07-13T00:07:35;99737.56;;;27.01;69.58
6349;BME280;3207;42.648;23.406;2023-07-13T00:10:03;99722.22;;;26.83;69.79
6349;BME280;3207;42.648;23.406;2023-07-13T00:12:32;99704.72;;;26.62;70.93
6349;BME280;3207;42.648;23.406;2023-07-13T00:15:01;99719.31;;;26.84;70.58
6349;BME280;3207;42.648;23.406;2023-07-13T00:17:30;99720.06;;;26.91;70.44
6349;BME280;3207;42.648;23.406;2023-07-13T00:19:57;99709.03;;;26.81;70.80
6349;BME280;3207;42.648;23.406;2023-07-13T00:22:24;99696.38;;;26.70;71.43
6349;BME280;3207;42.648;23.406;2023-07-13T00:24:52;99711.13;;;26.61;71.96
6349;BME280;3207;42.648;23.406;2023-07-13T00:27:21;99718.91;;;26.69;72.15
6349;BME280;3207;42.648;23.406;2023-07-13T00:29:48;99694.28;;;26.72;71.54
6349;BME280;3207;42.648;23.406;2023-07-13T00:32:15;99696.22;;;26.83;71.55
6349;BME280;3207;42.648;23.406;2023-07-13T00:34:43;99688.41;;;26.82;71.54
6349;BME280;3207;42.648;23.406;2023-07-13T00:37:10;99690.53;;;26.91;71.38
6349;BME280;3207;42.648;23.406;2023-07-13T00:39:37;99707.44;;;26.99;71.23
6349;BME280;3207;42.648;23.406;2023-07-13T00:42:07;99684.88;;;26.81;71.49
6349;BME280;3207;42.648;23.406;2023-07-13T00:44:33;99694.75;;;26.87;71.67
6349;BME280;3207;42.648;23.406;2023-07-13T00:47:01;99695.19;;;26.84;71.28
6349;BME280;3207;42.648;23.406;2023-07-13T00:49:29;99698.25;;;27.36;69.18
6349;BME280;3207;42.648;23.406;2023-07-13T00:52:02;99698.97;;;27.73;67.18
6349;BME280;3207;42.648;23.406;2023-07-13T00:54:40;99675.41;;;27.75;67.17
6349;BME280;3207;42.648;23.406;2023-07-13T00:57:10;99674.66;;;27.68;67.73
6349;BME280;3207;42.648;23.406;2023-07-13T00:59:41;99674.06;;;27.66;68.00
6349;BME280;3207;42.648;23.406;2023-07-13T01:02:09;99673.28;;;27.77;68.00
6349;BME280;3207;42.648;23.406;2023-07-13T01:04:37;99666.81;;;27.55;69.12
6349;BME280;3207;42.648;23.406;2023-07-13T01:07:06;99651.81;;;27.47;69.43
6349;BME280;3207;42.648;23.406;2023-07-13T01:09:33;99646.59;;;27.52;69.38
6349;BME280;3207;42.648;23.406;2023-07-13T01:12:00;99647.91;;;27.61;69.43
6349;BME280;3207;42.648;23.406;2023-07-13T01:14:27;99646.91;;;27.44;70.07
6349;BME280;3207;42.648;23.406;2023-07-13T01:16:54;99650.31;;;27.51;69.70
6349;BME280;3207;42.648;23.406;2023-07-13T01:19:35;99650.69;;;27.25;70.51
6349;BME280;3207;42.648;23.406;2023-07-13T01:22:04;99660.06;;;27.04;71.66
6349;BME280;3207;42.648;23.406;2023-07-13T01:24:34;99658.81;;;26.70;73.34
6349;BME280;3207;42.648;23.406;2023-07-13T01:27:00;99673.53;;;26.24;75.76
6349;BME280;3207;42.648;23.406;2023-07-13T01:29:28;99665.06;;;26.28;76.69
6349;BME280;3207;42.648;23.406;2023-07-13T01:31:54;99664.50;;;26.19;77.32
6349;BME280;3207;42.648;23.406;2023-07-13T01:34:21;99656.75;;;26.11;77.39
6349;BME280;3207;42.648;23.406;2023-07-13T01:36:48;99642.13;;;25.88;79.03
6349;BME280;3207;42.648;23.406;2023-07-13T01:39:20;99646.00;;;25.93;78.78
6349;BME280;3207;42.648;23.406;2023-07-13T01:41:47;99650.75;;;25.66;79.93
6349;BME280;3207;42.648;23.406;2023-07-13T01:44:14;99647.00;;;25.42;81.00
6349;BME280;3207;42.648;23.406;2023-07-13T01:46:40;99645.94;;;25.43;81.48
6349;BME280;3207;42.648;23.406;2023-07-13T01:49:07;99644.88;;;25.50;81.59
6349;BME280;3207;42.648;23.406;2023-07-13T01:51:34;99639.97;;;25.47;81.60
6349;BME280;3207;42.648;23.406;2023-07-13T01:54:01;99643.94;;;25.38;81.68
6349;BME280;3207;42.648;23.406;2023-07-13T01:56:29;99624.53;;;25.18;83.08
6349;BME280;3207;42.648;23.406;2023-07-13T01:58:56;99636.19;;;25.30;83.26
6349;BME280;3207;42.648;23.406;2023-07-13T02:01:23;99642.56;;;25.29;83.15
6349;BME280;3207;42.648;23.406;2023-07-13T02:03:49;99651.19;;;25.31;82.38
6349;BME280;3207;42.648;23.406;2023-07-13T02:06:16;99664.41;;;25.26;83.08
6349;BME280;3207;42.648;23.406;2023-07-13T02:08:43;99677.16;;;25.24;83.15
6349;BME280;3207;42.648;23.406;2023-07-13T02:11:10;99689.09;;;25.22;83.80
6349;BME280;3207;42.648;23.406;2023-07-13T02:13:38;99692.03;;;25.20;83.68
6349;BME280;3207;42.648;23.406;2023-07-13T02:16:05;99704.25;;;25.41;82.54
6349;BME280;3207;42.648;23.406;2023-07-13T02:18:32;99721.03;;;25.54;81.73
6349;BME280;3207;42.648;23.406;2023-07-13T02:20:58;99729.88;;;25.55;81.51
6349;BME280;3207;42.648;23.406;2023-07-13T02:23:25;99742.47;;;25.54;81.76
6349;BME280;3207;42.648;23.406;2023-07-13T02:25:54;99734.69;;;25.46;82.38
6349;BME280;3207;42.648;23.406;2023-07-13T02:28:21;99736.47;;;25.59;81.81
6349;BME280;3207;42.648;23.406;2023-07-13T02:30:49;99757.53;;;25.49;82.17
6349;BME280;3207;42.648;23.406;2023-07-13T02:33:16;99749.44;;;25.56;82.03
6349;BME280;3207;42.648;23.406;2023-07-13T02:35:43;99749.84;;;25.59;81.60
6349;BME280;3207;42.648;23.406;2023-07-13T02:38:10;99746.81;;;25.49;82.18
6349;BME280;3207;42.648;23.406;2023-07-13T02:40:36;99735.50;;;25.47;83.07
6349;BME280;3207;42.648;23.406;2023-07-13T02:43:03;99733.34;;;25.31;83.35
6349;BME280;3207;42.648;23.406;2023-07-13T02:45:30;99734.94;;;25.38;82.88
6349;BME280;3207;42.648;23.406;2023-07-13T02:47:58;99743.81;;;25.32;83.14
6349;BME280;3207;42.648;23.406;2023-07-13T02:50:25;99766.38;;;25.49;82.92
6349;BME280;3207;42.648;23.406;2023-07-13T02:52:52;99742.25;;;25.63;82.32
6349;BME280;3207;42.648;23.406;2023-07-13T02:55:18;99754.34;;;25.72;81.95
6349;BME280;3207;42.648;23.406;2023-07-13T02:57:45;99729.25;;;25.66;78.86
6349;BME280;3207;42.648;23.406;2023-07-13T03:00:12;99730.28;;;25.65;75.55
6349;BME280;3207;42.648;23.406;2023-07-13T03:02:41;99743.19;;;25.75;73.61
6349;BME280;3207;42.648;23.406;2023-07-13T03:05:10;99758.63;;;25.79;72.57
6349;BME280;3207;42.648;23.406;2023-07-13T03:07:38;99769.47;;;25.91;70.62
6349;BME280;3207;42.648;23.406;2023-07-13T03:10:06;99769.38;;;26.04;68.65
6349;BME280;3207;42.648;23.406;2023-07-13T03:12:33;99782.09;;;26.09;68.03
6349;BME280;3207;42.648;23.406;2023-07-13T03:14:59;99783.75;;;26.10;67.31
6349;BME280;3207;42.648;23.406;2023-07-13T03:17:26;99782.28;;;26.14;66.20
6349;BME280;3207;42.648;23.406;2023-07-13T03:19:53;99785.50;;;26.22;65.64
6349;BME280;3207;42.648;23.406;2023-07-13T03:22:21;99800.09;;;26.33;64.55
6349;BME280;3207;42.648;23.406;2023-07-13T03:24:48;99814.56;;;26.25;64.84
6349;BME280;3207;42.648;23.406;2023-07-13T03:27:15;99820.75;;;26.26;64.72
6349;BME280;3207;42.648;23.406;2023-07-13T03:29:42;99819.91;;;26.25;64.84
6349;BME280;3207;42.648;23.406;2023-07-13T03:32:09;99814.75;;;26.31;65.13
6349;BME280;3207;42.648;23.406;2023-07-13T03:34:36;99814.97;;;26.22;65.69
6349;BME280;3207;42.648;23.406;2023-07-13T03:37:03;99797.69;;;26.18;65.63
6349;BME280;3207;42.648;23.406;2023-07-13T03:39:31;99799.00;;;26.09;66.35
6349;BME280;3207;42.648;23.406;2023-07-13T03:41:58;99793.22;;;26.12;66.13
6349;BME280;3207;42.648;23.406;2023-07-13T03:44:25;99792.38;;;26.12;65.70
6349;BME280;3207;42.648;23.406;2023-07-13T03:46:51;99789.53;;;26.07;65.78
6349;BME280;3207;42.648;23.406;2023-07-13T03:49:18;99795.38;;;25.97;64.69
6349;BME280;3207;42.648;23.406;2023-07-13T03:51:45;99777.28;;;25.93;63.02
6349;BME280;3207;42.648;23.406;2023-07-13T03:54:12;99772.75;;;25.93;62.60
6349;BME280;3207;42.648;23.406;2023-07-13T03:56:40;99768.56;;;25.97;60.76
6349;BME280;3207;42.648;23.406;2023-07-13T03:59:06;99771.00;;;26.05;58.98
6349;BME280;3207;42.648;23.406;2023-07-13T04:01:33;99749.94;;;26.09;58.32
6349;BME280;3207;42.648;23.406;2023-07-13T04:04:00;99743.28;;;25.93;57.80
6349;BME280;3207;42.648;23.406;2023-07-13T04:06:29;99733.19;;;25.88;56.87
6349;BME280;3207;42.648;23.406;2023-07-13T04:08:57;99734.69;;;26.09;56.25
6349;BME280;3207;42.648;23.406;2023-07-13T04:11:26;99738.88;;;25.99;56.24
6349;BME280;3207;42.648;23.406;2023-07-13T04:13:55;99735.34;;;25.80;56.38
6349;BME280;3207;42.648;23.406;2023-07-13T04:16:22;99736.88;;;25.56;57.55
6349;BME280;3207;42.648;23.406;2023-07-13T04:18:49;99738.13;;;25.53;57.83
6349;BME280;3207;42.648;23.406;2023-07-13T04:21:16;99745.69;;;25.70;57.26
6349;BME280;3207;42.648;23.406;2023-07-13T04:23:43;99748.44;;;25.88;56.70
6349;BME280;3207;42.648;23.406;2023-07-13T04:26:10;99748.78;;;25.98;56.39
6349;BME280;3207;42.648;23.406;2023-07-13T04:28:37;99753.13;;;26.24;55.36
6349;BME280;3207;42.648;23.406;2023-07-13T04:31:05;99740.47;;;26.56;54.57
6349;BME280;3207;42.648;23.406;2023-07-13T04:33:32;99751.53;;;26.66;54.52
6349;BME280;3207;42.648;23.406;2023-07-13T04:35:59;99751.38;;;26.79;53.83
6349;BME280;3207;42.648;23.406;2023-07-13T04:38:28;99755.13;;;26.96;53.30
6349;BME280;3207;42.648;23.406;2023-07-13T04:40:56;99748.22;;;26.82;53.75
6349;BME280;3207;42.648;23.406;2023-07-13T04:43:23;99740.31;;;26.51;54.68
6349;BME280;3207;42.648;23.406;2023-07-13T04:45:51;99746.63;;;26.38;54.92
6349;BME280;3207;42.648;23.406;2023-07-13T04:48:19;99758.34;;;26.62;54.13
6349;BME280;3207;42.648;23.406;2023-07-13T04:50:47;99759.44;;;26.79;54.06
6349;BME280;3207;42.648;23.406;2023-07-13T04:53:15;99763.59;;;26.57;54.79
6349;BME280;3207;42.648;23.406;2023-07-13T04:55:41;99759.81;;;26.40;55.60
6349;BME280;3207;42.648;23.406;2023-07-13T04:58:08;99753.13;;;26.24;55.63
6349;BME280;3207;42.648;23.406;2023-07-13T05:00:35;99749.69;;;26.42;55.55
6349;BME280;3207;42.648;23.406;2023-07-13T05:03:03;99763.19;;;26.53;55.22
6349;BME280;3207;42.648;23.406;2023-07-13T05:05:31;99766.16;;;26.45;55.76
6349;BME280;3207;42.648;23.406;2023-07-13T05:07:57;99774.97;;;26.52;56.25
6349;BME280;3207;42.648;23.406;2023-07-13T05:10:24;99778.31;;;26.48;57.09
6349;BME280;3207;42.648;23.406;2023-07-13T05:12:51;99776.50;;;26.42;57.04
6349;BME280;3207;42.648;23.406;2023-07-13T05:15:20;99771.53;;;26.45;56.58
6349;BME280;3207;42.648;23.406;2023-07-13T05:17:47;99780.03;;;26.60;59.12
6349;BME280;3207;42.648;23.406;2023-07-13T05:20:15;99768.78;;;26.52;60.12
6349;BME280;3207;42.648;23.406;2023-07-13T05:22:43;99779.41;;;26.40;60.60
6349;BME280;3207;42.648;23.406;2023-07-13T05:25:12;99781.44;;;26.45;60.89
6349;BME280;3207;42.648;23.406;2023-07-13T05:27:39;99796.31;;;26.41;60.48
6349;BME280;3207;42.648;23.406;2023-07-13T05:30:07;99803.50;;;26.47;61.79
6349;BME280;3207;42.648;23.406;2023-07-13T05:32:36;99817.47;;;26.49;62.77
6349;BME280;3207;42.648;23.406;2023-07-13T05:35:03;99804.94;;;26.43;63.59
6349;BME280;3207;42.648;23.406;2023-07-13T05:37:30;99794.63;;;26.46;62.97
6349;BME280;3207;42.648;23.406;2023-07-13T05:39:58;99781.88;;;26.60;63.41
6349;BME280;3207;42.648;23.406;2023-07-13T05:42:25;99810.34;;;26.61;64.39
6349;BME280;3207;42.648;23.406;2023-07-13T05:44:52;99827.88;;;26.39;64.61
6349;BME280;3207;42.648;23.406;2023-07-13T05:47:18;99835.97;;;26.32;64.05
6349;BME280;3207;42.648;23.406;2023-07-13T05:49:45;99824.44;;;26.32;63.98
6349;BME280;3207;42.648;23.406;2023-07-13T05:52:12;99828.16;;;26.24;64.25
6349;BME280;3207;42.648;23.406;2023-07-13T05:54:39;99835.81;;;26.20;62.86
6349;BME280;3207;42.648;23.406;2023-07-13T05:57:07;99838.06;;;26.23;63.17
6349;BME280;3207;42.648;23.406;2023-07-13T05:59:34;99842.59;;;26.23;63.56
6349;BME280;3207;42.648;23.406;2023-07-13T06:02:00;99851.25;;;26.25;63.41
6349;BME280;3207;42.648;23.406;2023-07-13T06:04:27;99852.78;;;26.46;63.80
6349;BME280;3207;42.648;23.406;2023-07-13T06:06:54;99852.06;;;26.57;63.22
6349;BME280;3207;42.648;23.406;2023-07-13T06:09:21;99857.47;;;26.50;64.07
6349;BME280;3207;42.648;23.406;2023-07-13T06:11:47;99869.22;;;26.56;64.32
6349;BME280;3207;42.648;23.406;2023-07-13T06:14:15;99864.19;;;26.59;63.90
6349;BME280;3207;42.648;23.406;2023-07-13T06:16:42;99863.34;;;26.66;63.75
6349;BME280;3207;42.648;23.406;2023-07-13T06:19:09;99868.13;;;26.82;62.82
6349;BME280;3207;42.648;23.406;2023-07-13T06:21:36;99871.66;;;26.82;62.59
6349;BME280;3207;42.648;23.406;2023-07-13T06:24:03;99879.53;;;26.77;62.76
6349;BME280;3207;42.648;23.406;2023-07-13T06:26:30;99884.38;;;26.93;62.15
6349;BME280;3207;42.648;23.406;2023-07-13T06:28:57;99888.28;;;27.16;61.29
6349;BME280;3207;42.648;23.406;2023-07-13T06:31:25;99883.31;;;27.38;60.71
6349;BME280;3207;42.648;23.406;2023-07-13T06:33:52;99883.69;;;27.59;59.66
6349;BME280;3207;42.648;23.406;2023-07-13T06:36:18;99886.66;;;27.69;58.79
6349;BME280;3207;42.648;23.406;2023-07-13T06:38:45;99883.78;;;28.01;57.44
6349;BME280;3207;42.648;23.406;2023-07-13T06:41:12;99896.66;;;27.81;57.72
6349;BME280;3207;42.648;23.406;2023-07-13T06:43:39;99896.75;;;27.56;58.86
6349;BME280;3207;42.648;23.406;2023-07-13T06:46:05;99888.63;;;27.62;57.83
6349;BME280;3207;42.648;23.406;2023-07-13T06:48:34;99900.75;;;27.83;57.85
6349;BME280;3207;42.648;23.406;2023-07-13T06:51:01;99894.69;;;27.88;57.48
6349;BME280;3207;42.648;23.406;2023-07-13T06:53:29;99885.84;;;27.99;57.06
6349;BME280;3207;42.648;23.406;2023-07-13T06:55:55;99888.69;;;28.04;56.47
6349;BME280;3207;42.648;23.406;2023-07-13T06:58:22;99882.09;;;28.18;56.29
6349;BME280;3207;42.648;23.406;2023-07-13T07:00:50;99892.88;;;28.30;54.56
6349;BME280;3207;42.648;23.406;2023-07-13T07:03:18;99893.53;;;28.44;53.53
6349;BME280;3207;42.648;23.406;2023-07-13T07:05:46;99893.88;;;28.47;54.82
6349;BME280;3207;42.648;23.406;2023-07-13T07:08:13;99896.22;;;28.44;55.31
6349;BME280;3207;42.648;23.406;2023-07-13T07:10:40;99895.31;;;28.50;54.91
6349;BME280;3207;42.648;23.406;2023-07-13T07:13:07;99890.47;;;28.82;54.35
6349;BME280;3207;42.648;23.406;2023-07-13T07:15:36;99894.66;;;29.01;53.43
6349;BME280;3207;42.648;23.406;2023-07-13T07:18:03;99894.91;;;29.23;52.54
6349;BME280;3207;42.648;23.406;2023-07-13T07:20:37;99886.09;;;29.39;52.85
6349;BME280;3207;42.648;23.406;2023-07-13T07:23:05;99894.03;;;29.57;52.15
6349;BME280;3207;42.648;23.406;2023-07-13T07:25:32;99892.56;;;29.78;50.74
6349;BME280;3207;42.648;23.406;2023-07-13T07:28:03;99877.16;;;29.90;50.81
6349;BME280;3207;42.648;23.406;2023-07-13T07:30:29;99879.84;;;30.02;50.27
6349;BME280;3207;42.648;23.406;2023-07-13T07:32:56;99875.41;;;29.96;50.63
6349;BME280;3207;42.648;23.406;2023-07-13T07:35:23;99884.50;;;30.06;50.23
6349;BME280;3207;42.648;23.406;2023-07-13T07:37:50;99884.72;;;30.33;49.16
6349;BME280;3207;42.648;23.406;2023-07-13T07:40:18;99881.31;;;30.54;48.79
6349;BME280;3207;42.648;23.406;2023-07-13T07:42:45;99897.63;;;30.60;48.68
6349;BME280;3207;42.648;23.406;2023-07-13T07:45:11;99895.16;;;30.58;48.12
6349;BME280;3207;42.648;23.406;2023-07-13T07:47:38;99901.97;;;30.61;48.46
6349;BME280;3207;42.648;23.406;2023-07-13T07:50:06;99910.28;;;30.59;48.63
6349;BME280;3207;42.648;23.406;2023-07-13T07:52:33;99903.09;;;30.65;48.84
6349;BME280;3207;42.648;23.406;2023-07-13T07:54:59;99904.25;;;30.69;48.48
6349;BME280;3207;42.648;23.406;2023-07-13T07:57:27;99903.00;;;30.60;47.94
6349;BME280;3207;42.648;23.406;2023-07-13T07:59:54;99886.97;;;30.53;48.07
6349;BME280;3207;42.648;23.406;2023-07-13T08:02:21;99889.28;;;30.61;48.00
6349;BME280;3207;42.648;23.406;2023-07-13T08:04:48;99882.53;;;30.47;47.94
6349;BME280;3207;42.648;23.406;2023-07-13T08:07:14;99879.94;;;30.69;48.71
6349;BME280;3207;42.648;23.406;2023-07-13T08:09:44;99891.88;;;30.89;47.99
6349;BME280;3207;42.648;23.406;2023-07-13T08:12:12;99899.06;;;31.17;47.30
6349;BME280;3207;42.648;23.406;2023-07-13T08:14:40;99903.78;;;31.27;45.96
6349;BME280;3207;42.648;23.406;2023-07-13T08:17:06;99905.69;;;31.48;46.03
6349;BME280;3207;42.648;23.406;2023-07-13T08:19:33;99903.41;;;31.40;46.97
6349;BME280;3207;42.648;23.406;2023-07-13T08:22:00;99905.41;;;31.67;47.31
6349;BME280;3207;42.648;23.406;2023-07-13T08:24:27;99919.81;;;31.72;46.14
6349;BME280;3207;42.648;23.406;2023-07-13T08:26:54;99924.50;;;31.82;45.74
6349;BME280;3207;42.648;23.406;2023-07-13T08:29:20;99931.50;;;31.78;46.47
6349;BME280;3207;42.648;23.406;2023-07-13T08:31:49;99931.50;;;31.39;47.13
6349;BME280;3207;42.648;23.406;2023-07-13T08:34:15;99910.25;;;31.48;47.02
6349;BME280;3207;42.648;23.406;2023-07-13T08:36:42;99887.25;;;31.07;48.13
6349;BME280;3207;42.648;23.406;2023-07-13T08:39:09;99881.16;;;30.78;48.96
6349;BME280;3207;42.648;23.406;2023-07-13T08:41:36;99869.78;;;30.76;49.40
6349;BME280;3207;42.648;23.406;2023-07-13T08:44:07;99848.13;;;30.54;49.90
6349;BME280;3207;42.648;23.406;2023-07-13T08:46:45;99908.88;;;31.07;49.10
6349;BME280;3207;42.648;23.406;2023-07-13T08:49:17;99924.28;;;31.23;48.35
6349;BME280;3207;42.648;23.406;2023-07-13T08:51:51;99908.78;;;31.57;47.03
6349;BME280;3207;42.648;23.406;2023-07-13T08:54:25;99903.06;;;31.53;47.67
6349;BME280;3207;42.648;23.406;2023-07-13T08:56:55;99884.63;;;31.50;46.98
6349;BME280;3207;42.648;23.406;2023-07-13T08:59:25;99876.88;;;31.37;48.02
6349;BME280;3207;42.648;23.406;2023-07-13T09:02:07;99873.53;;;31.08;48.21
6349;BME280;3207;42.648;23.406;2023-07-13T09:04:41;99891.88;;;30.89;48.34
6349;BME280;3207;42.648;23.406;2023-07-13T09:07:14;99890.56;;;30.92;48.76
6349;BME280;3207;42.648;23.406;2023-07-13T09:09:52;99881.41;;;30.93;49.19
6349;BME280;3207;42.648;23.406;2023-07-13T09:12:27;99894.78;;;31.21;48.21
6349;BME280;3207;42.648;23.406;2023-07-13T09:14:58;99890.56;;;31.09;48.58
6349;BME280;3207;42.648;23.406;2023-07-13T09:17:30;99884.25;;;31.42;48.23
6349;BME280;3207;42.648;23.406;2023-07-13T09:20:03;99875.56;;;31.40;47.84
6349;BME280;3207;42.648;23.406;2023-07-13T09:22:34;99866.91;;;31.38;47.60
6349;BME280;3207;42.648;23.406;2023-07-13T09:25:05;99865.94;;;31.27;47.74
6349;BME280;3207;42.648;23.406;2023-07-13T09:27:38;99852.75;;;31.31;47.46
6349;BME280;3207;42.648;23.406;2023-07-13T09:30:24;99866.34;;;31.14;48.39
6349;BME280;3207;42.648;23.406;2023-07-13T09:32:54;99877.66;;;31.33;47.59
6349;BME280;3207;42.648;23.406;2023-07-13T09:35:27;99884.06;;;31.48;47.51
6349;BME280;3207;42.648;23.406;2023-07-13T09:37:58;99884.88;;;31.92;46.75
6349;BME280;3207;42.648;23.406;2023-07-13T09:40:32;99866.13;;;32.13;45.35
6349;BME280;3207;42.648;23.406;2023-07-13T09:43:04;99868.84;;;32.13;45.37
6349;BME280;3207;42.648;23.406;2023-07-13T09:45:34;99872.63;;;32.12;45.51
6349;BME280;3207;42.648;23.406;2023-07-13T09:48:06;99884.69;;;32.26;45.56
6349;BME280;3207;42.648;23.406;2023-07-13T09:50:34;99878.97;;;32.22;45.73
6349;BME280;3207;42.648;23.406;2023-07-13T09:53:02;99876.03;;;32.24;45.86
6349;BME280;3207;42.648;23.406;2023-07-13T09:55:33;99879.28;;;32.26;45.38
6349;BME280;3207;42.648;23.406;2023-07-13T09:58:04;99881.09;;;31.93;45.97
6349;BME280;3207;42.648;23.406;2023-07-13T10:00:32;99879.81;;;32.01;45.83
6349;BME280;3207;42.648;23.406;2023-07-13T10:03:09;99873.03;;;32.20;45.68
6349;BME280;3207;42.648;23.406;2023-07-13T10:05:44;99886.00;;;32.50;44.56
6349;BME280;3207;42.648;23.406;2023-07-13T10:08:17;99896.03;;;32.50;44.13
6349;BME280;3207;42.648;23.406;2023-07-13T10:10:44;99883.88;;;32.52;44.66
6349;BME280;3207;42.648;23.406;2023-07-13T10:13:36;99890.69;;;32.97;44.22
6349;BME280;3207;42.648;23.406;2023-07-13T10:16:04;99898.56;;;32.93;43.52
6349;BME280;3207;42.648;23.406;2023-07-13T10:18:46;99892.94;;;33.10;43.14
6349;BME280;3207;42.648;23.406;2023-07-13T10:21:18;99904.34;;;33.12;42.83
6349;BME280;3207;42.648;23.406;2023-07-13T10:23:50;99903.22;;;33.03;43.07
6349;BME280;3207;42.648;23.406;2023-07-13T10:26:23;99901.69;;;33.22;42.86
6349;BME280;3207;42.648;23.406;2023-07-13T10:28:54;99903.94;;;33.25;42.60
6349;BME280;3207;42.648;23.406;2023-07-13T10:31:23;99908.50;;;33.82;41.96
6349;BME280;3207;42.648;23.406;2023-07-13T10:33:50;99903.66;;;33.79;41.30
6349;BME280;3207;42.648;23.406;2023-07-13T10:36:27;99900.19;;;34.14;40.70
6349;BME280;3207;42.648;23.406;2023-07-13T10:38:57;99907.53;;;34.24;40.41
6349;BME280;3207;42.648;23.406;2023-07-13T10:41:27;99899.16;;;34.50;39.75
6349;BME280;3207;42.648;23.406;2023-07-13T10:43:56;99907.28;;;35.16;38.50
6349;BME280;3207;42.648;23.406;2023-07-13T10:46:25;99892.13;;;34.75;38.85
6349;BME280;3207;42.648;23.406;2023-07-13T10:48:57;99885.31;;;34.42;39.99
6349;BME280;3207;42.648;23.406;2023-07-13T10:51:27;99881.53;;;34.43;39.80
6349;BME280;3207;42.648;23.406;2023-07-13T10:54:18;99870.91;;;34.26;39.53
6349;BME280;3207;42.648;23.406;2023-07-13T10:56:50;99863.59;;;34.32;40.17
6349;BME280;3207;42.648;23.406;2023-07-13T10:59:20;99858.13;;;34.67;39.32
6349;BME280;3207;42.648;23.406;2023-07-13T11:01:56;99828.00;;;34.64;39.06
6349;BME280;3207;42.648;23.406;2023-07-13T11:04:24;99845.38;;;34.83;38.91
6349;BME280;3207;42.648;23.406;2023-07-13T11:06:58;99833.16;;;34.20;40.39
6349;BME280;3207;42.648;23.406;2023-07-13T11:09:35;99822.06;;;34.26;40.76
6349;BME280;3207;42.648;23.406;2023-07-13T11:12:08;99828.81;;;34.54;39.67
6349;BME280;3207;42.648;23.406;2023-07-13T11:14:43;99836.38;;;34.87;38.87
6349;BME280;3207;42.648;23.406;2023-07-13T11:20:22;99812.53;;;34.34;39.66
6349;BME280;3207;42.648;23.406;2023-07-13T11:22:52;99799.47;;;33.85;40.85
6349;BME280;3207;42.648;23.406;2023-07-13T11:25:34;99822.03;;;34.11;40.63
6349;BME280;3207;42.648;23.406;2023-07-13T11:28:17;99836.97;;;34.29;39.93
6349;BME280;3207;42.648;23.406;2023-07-13T11:30:47;99828.78;;;33.93;40.69
6349;BME280;3207;42.648;23.406;2023-07-13T11:33:18;99835.28;;;33.77;41.16
6349;BME280;3207;42.648;23.406;2023-07-13T11:35:51;99857.00;;;33.97;40.93
6349;BME280;3207;42.648;23.406;2023-07-13T11:38:24;99839.13;;;34.06;40.38
6349;BME280;3207;42.648;23.406;2023-07-13T11:40:55;99859.00;;;34.32;40.50
6349;BME280;3207;42.648;23.406;2023-07-13T11:43:22;99838.63;;;34.40;40.05
6349;BME280;3207;42.648;23.406;2023-07-13T11:45:50;99825.84;;;34.61;39.69
6349;BME280;3207;42.648;23.406;2023-07-13T11:48:25;99815.97;;;35.00;38.97
6349;BME280;3207;42.648;23.406;2023-07-13T11:50:55;99831.16;;;35.27;38.29
6349;BME280;3207;42.648;23.406;2023-07-13T11:53:28;99834.34;;;35.39;38.26
6349;BME280;3207;42.648;23.406;2023-07-13T11:56:01;99821.59;;;35.19;38.43
6349;BME280;3207;42.648;23.406;2023-07-13T11:58:28;99826.31;;;35.03;38.76
6349;BME280;3207;42.648;23.406;2023-07-13T12:00:58;99817.91;;;34.95;38.63
6349;BME280;3207;42.648;23.406;2023-07-13T12:03:27;99823.38;;;34.84;39.47
6349;BME280;3207;42.648;23.406;2023-07-13T12:05:59;99816.31;;;34.73;39.40
6349;BME280;3207;42.648;23.406;2023-07-13T12:08:29;99810.34;;;34.61;39.95
6349;BME280;3207;42.648;23.406;2023-07-13T12:10:58;99848.13;;;34.42;40.64
6349;BME280;3207;42.648;23.406;2023-07-13T12:13:27;99816.34;;;34.33;40.73
6349;BME280;3207;42.648;23.406;2023-07-13T12:15:54;99804.97;;;34.31;40.29
6349;BME280;3207;42.648;23.406;2023-07-13T12:18:27;99797.88;;;34.45;40.68
6349;BME280;3207;42.648;23.406;2023-07-13T12:20:57;99799.47;;;34.56;40.56
6349;BME280;3207;42.648;23.406;2023-07-13T12:23:31;99807.34;;;34.83;39.70
6349;BME280;3207;42.648;23.406;2023-07-13T12:25:59;99786.16;;;34.80;39.94
6349;BME280;3207;42.648;23.406;2023-07-13T12:28:33;99803.75;;;34.98;39.63
6349;BME280;3207;42.648;23.406;2023-07-13T12:31:03;99795.28;;;35.14;39.41
6349;BME280;3207;42.648;23.406;2023-07-13T12:33:31;99797.19;;;35.09;39.77
6349;BME280;3207;42.648;23.406;2023-07-13T12:36:00;99793.69;;;35.03;40.09
6349;BME280;3207;42.648;23.406;2023-07-13T12:38:35;99782.63;;;34.79;40.40
6349;BME280;3207;42.648;23.406;2023-07-13T12:41:03;99777.16;;;34.95;40.62
6349;BME280;3207;42.648;23.406;2023-07-13T12:43:33;99766.00;;;34.96;40.15
6349;BME280;3207;42.648;23.406;2023-07-13T12:46:04;99751.09;;;34.83;40.18
6349;BME280;3207;42.648;23.406;2023-07-13T12:48:38;99786.69;;;34.77;41.06
6349;BME280;3207;42.648;23.406;2023-07-13T12:51:10;99773.13;;;34.57;40.99
6349;BME280;3207;42.648;23.406;2023-07-13T12:53:40;99793.81;;;34.42;41.54
6349;BME280;3207;42.648;23.406;2023-07-13T12:56:16;99755.53;;;34.19;41.51
6349;BME280;3207;42.648;23.406;2023-07-13T12:58:46;99761.25;;;34.27;41.64
6349;BME280;3207;42.648;23.406;2023-07-13T13:01:20;99775.06;;;34.21;42.14
6349;BME280;3207;42.648;23.406;2023-07-13T13:03:49;99763.66;;;33.93;41.71
6349;BME280;3207;42.648;23.406;2023-07-13T13:06:23;99764.47;;;33.84;42.43
6349;BME280;3207;42.648;23.406;2023-07-13T13:08:52;99772.88;;;33.77;42.38
6349;BME280;3207;42.648;23.406;2023-07-13T13:11:22;99773.91;;;33.66;42.76
6349;BME280;3207;42.648;23.406;2023-07-13T13:13:50;99783.66;;;33.52;42.93
6349;BME280;3207;42.648;23.406;2023-07-13T13:16:20;99770.63;;;33.54;43.36
6349;BME280;3207;42.648;23.406;2023-07-13T13:18:48;99758.97;;;33.53;44.20
6349;BME280;3207;42.648;23.406;2023-07-13T13:21:16;99742.69;;;33.43;44.96